createdAt,value
2018-03-02T00:02:00.806Z,41.27
2018-03-02T00:05:04.779Z,39.85
2018-03-02T00:08:07.945Z,38.58
2018-03-02T00:11:11.105Z,44.03
2018-03-02T00:14:14.329Z,38.97
2018-03-02T00:17:17.624Z,43.90
2018-03-02T00:20:20.790Z,43.17
2018-03-02T00:23:23.985Z,42.10
2018-03-02T00:26:27.144Z,43.60
2018-03-02T00:29:30.413Z,43.07
2018-03-02T00:32:33.609Z,40.00
2018-03-02T00:35:36.866Z,40.97
2018-03-02T00:38:40.048Z,44.17
2018-03-02T00:41:43.263Z,38.53
2018-03-02T00:44:46.458Z,38.53
2018-03-02T00:47:49.661Z,40.43
2018-03-02T00:50:52.865Z,42.50
2018-03-02T00:53:56.045Z,45.43
2018-03-02T00:56:59.609Z,49.57
2018-03-02T01:00:02.777Z,44.07
2018-03-02T01:03:05.922Z,44.47
2018-03-02T01:06:09.109Z,47.23
2018-03-02T01:09:12.257Z,44.53
2018-03-02T01:12:15.453Z,43.60
2018-03-02T01:15:18.670Z,47.17
2018-03-02T01:18:21.829Z,43.53
2018-03-02T01:21:25.031Z,42.73
2018-03-02T01:24:28.199Z,45.90
2018-03-02T01:27:31.336Z,44.80
2018-03-02T01:30:34.605Z,42.38
2018-03-02T01:33:37.808Z,44.03
2018-03-02T01:36:41.008Z,41.63
2018-03-02T01:39:44.181Z,45.17
2018-03-02T01:42:47.354Z,41.63
2018-03-02T01:45:50.858Z,41.07
2018-03-02T01:52:32.091Z,45.90
2018-03-02T01:55:36.230Z,42.77
2018-03-02T01:58:39.396Z,42.27
2018-03-02T02:01:42.614Z,41.27
2018-03-02T02:04:45.806Z,42.43
2018-03-02T02:07:48.993Z,44.50
2018-03-02T02:10:52.264Z,41.33
2018-03-02T02:13:55.504Z,43.37
2018-03-02T02:20:36.745Z,44.40
2018-03-02T02:23:39.909Z,40.97
2018-03-02T02:26:43.094Z,45.07
2018-03-02T02:29:46.268Z,40.20
2018-03-02T02:32:49.490Z,46.37
2018-03-02T02:35:52.698Z,45.13
2018-03-02T02:38:55.862Z,43.20
2018-03-02T02:41:59.098Z,43.57
2018-03-02T02:45:02.361Z,41.57
2018-03-02T02:48:06.707Z,41.27
2018-03-02T02:51:09.922Z,40.60
2018-03-02T02:54:13.111Z,39.83
2018-03-02T02:57:16.295Z,46.87
2018-03-02T03:00:19.469Z,36.10
2018-03-02T03:03:22.637Z,42.62
2018-03-02T03:06:25.861Z,41.73
2018-03-02T03:09:29.162Z,38.57
2018-03-02T03:12:32.311Z,39.97
2018-03-02T03:15:36.534Z,42.30
2018-03-02T03:18:39.822Z,44.60
2018-03-02T03:21:43.091Z,41.30
2018-03-02T03:24:46.266Z,41.03
2018-03-02T03:27:49.570Z,44.63
2018-03-02T03:30:52.781Z,43.83
2018-03-02T03:33:55.979Z,39.47
2018-03-02T03:36:59.325Z,40.30
2018-03-02T03:40:02.611Z,43.07
2018-03-02T03:43:06.964Z,38.33
2018-03-02T03:46:10.114Z,41.93
2018-03-02T03:49:13.305Z,41.00
2018-03-02T03:52:16.910Z,41.48
2018-03-02T03:55:20.074Z,39.33
2018-03-02T03:58:23.289Z,41.60
2018-03-02T04:01:26.454Z,38.42
2018-03-02T04:04:29.698Z,42.50
2018-03-02T04:07:32.946Z,38.40
2018-03-02T04:10:36.414Z,38.95
2018-03-02T04:13:39.736Z,48.08
2018-03-02T04:16:43.059Z,43.55
2018-03-02T04:19:46.230Z,41.35
2018-03-02T04:22:49.406Z,40.63
2018-03-02T04:25:52.601Z,40.80
2018-03-02T04:28:55.772Z,43.60
2018-03-02T04:31:58.993Z,39.93
2018-03-02T04:35:02.278Z,41.00
2018-03-02T04:38:06.500Z,47.17
2018-03-02T04:41:09.683Z,39.40
2018-03-02T04:47:51.115Z,39.50
2018-03-02T04:50:54.293Z,39.30
2018-03-02T04:53:57.478Z,42.20
2018-03-02T04:57:00.689Z,41.27
2018-03-02T05:00:05.353Z,39.90
2018-03-02T05:03:08.622Z,41.45
2018-03-02T05:06:11.782Z,43.48
2018-03-02T05:09:14.947Z,44.47
2018-03-02T05:12:18.086Z,47.45
2018-03-02T05:15:21.283Z,39.73
2018-03-02T05:18:24.489Z,43.50
2018-03-02T05:21:27.647Z,40.90
2018-03-02T05:24:30.784Z,44.57
2018-03-02T05:27:35.058Z,42.37
2018-03-02T05:30:38.332Z,43.43
2018-03-02T05:33:41.523Z,41.50
2018-03-02T05:36:45.045Z,38.93
2018-03-02T05:39:48.343Z,50.60
2018-03-02T05:42:51.527Z,43.63
2018-03-02T05:45:54.734Z,39.50
2018-03-02T05:48:57.885Z,42.27
2018-03-02T05:52:01.126Z,47.13
2018-03-02T05:55:04.820Z,42.87
2018-03-02T06:01:38.573Z,45.10
2018-03-02T06:04:41.784Z,43.43
2018-03-02T06:07:44.962Z,41.50
2018-03-02T06:10:48.240Z,41.20
2018-03-02T06:13:51.459Z,46.23
2018-03-02T06:16:54.731Z,44.73
2018-03-02T06:19:57.986Z,43.30
2018-03-02T06:23:01.290Z,45.87
2018-03-02T06:26:04.598Z,42.30
2018-03-02T06:29:07.874Z,41.20
2018-03-02T06:32:11.179Z,43.50
2018-03-02T06:35:14.470Z,44.08
2018-03-02T06:38:17.746Z,44.33
2018-03-02T06:41:21.015Z,48.00
2018-03-02T06:44:24.222Z,45.23
2018-03-02T06:47:27.522Z,49.37
2018-03-02T06:50:30.699Z,43.17
2018-03-02T06:53:33.950Z,49.43
2018-03-02T06:56:37.134Z,46.67
2018-03-02T06:59:40.359Z,49.53
2018-03-02T07:02:44.362Z,44.47
2018-03-02T07:05:47.833Z,42.97
2018-03-02T07:08:51.151Z,46.07
2018-03-02T07:11:54.378Z,44.70
2018-03-02T07:14:57.550Z,49.77
2018-03-02T07:18:00.886Z,45.93
2018-03-02T07:21:04.232Z,45.30
2018-03-02T07:24:07.450Z,46.17
2018-03-02T07:27:10.627Z,44.40
2018-03-02T07:30:14.727Z,44.87
2018-03-02T07:33:17.956Z,44.20
2018-03-02T07:36:21.218Z,43.67
2018-03-02T07:39:24.437Z,44.90
2018-03-02T07:42:27.622Z,49.63
2018-03-02T07:45:30.797Z,48.10
2018-03-02T07:48:34.563Z,49.00
2018-03-02T07:51:37.787Z,46.57
2018-03-02T07:54:41.004Z,47.90
2018-03-02T07:57:44.718Z,45.27
2018-03-02T08:00:48.000Z,50.90
2018-03-02T08:03:51.158Z,48.60
2018-03-02T08:06:54.408Z,49.33
2018-03-02T08:09:57.586Z,48.68
2018-03-02T08:13:00.836Z,44.53
2018-03-02T08:16:04.088Z,46.45
2018-03-02T08:19:07.238Z,46.18
2018-03-02T08:22:10.441Z,49.90
2018-03-02T08:25:14.871Z,48.90
2018-03-02T08:28:18.062Z,46.95
2018-03-02T08:31:21.335Z,47.65
2018-03-02T08:34:24.534Z,49.93
2018-03-02T08:37:27.812Z,46.90
2018-03-02T08:40:30.995Z,48.00
2018-03-02T08:43:34.190Z,46.30
2018-03-02T08:46:37.362Z,45.30
2018-03-02T08:49:41.009Z,46.25
2018-03-02T08:52:44.260Z,45.98
2018-03-02T08:55:47.632Z,44.93
2018-03-02T08:58:50.792Z,45.88
2018-03-02T09:01:54.013Z,46.28
2018-03-02T09:04:57.185Z,44.33
2018-03-02T09:08:00.374Z,46.37
2018-03-02T09:11:03.661Z,46.00
2018-03-02T09:14:06.874Z,44.00
2018-03-02T09:17:10.072Z,50.90
2018-03-02T09:20:14.239Z,52.13
2018-03-02T09:23:17.404Z,47.78
2018-03-02T09:26:20.577Z,48.92
2018-03-02T09:29:23.787Z,49.83
2018-03-02T09:32:26.969Z,48.15
2018-03-02T09:35:30.156Z,56.80
2018-03-02T09:38:33.331Z,45.67
2018-03-02T09:41:36.550Z,52.80
2018-03-02T09:44:39.719Z,48.60
2018-03-02T09:47:43.553Z,51.23
2018-03-02T09:50:46.733Z,48.30
2018-03-02T09:53:49.927Z,51.60
2018-03-02T09:56:53.105Z,51.40
2018-03-02T09:59:56.370Z,45.25
2018-03-02T10:02:59.525Z,47.15
2018-03-02T10:06:02.724Z,52.07
2018-03-02T10:09:05.919Z,53.58
2018-03-02T10:12:09.106Z,48.87
2018-03-02T10:15:12.294Z,44.37
2018-03-02T10:18:16.192Z,48.05
2018-03-02T10:21:19.603Z,43.73
2018-03-02T10:24:22.906Z,50.55
2018-03-02T10:27:26.060Z,48.63
2018-03-02T10:30:29.298Z,48.08
2018-03-02T10:33:32.564Z,55.15
2018-03-02T10:36:35.786Z,46.73
2018-03-02T10:39:38.970Z,47.67
2018-03-02T10:42:42.178Z,48.23
2018-03-02T10:45:46.185Z,48.20
2018-03-02T10:48:49.342Z,47.20
2018-03-02T10:51:52.578Z,45.55
2018-03-02T10:54:55.748Z,48.13
2018-03-02T10:57:58.985Z,48.68
2018-03-02T11:01:06.333Z,50.73
2018-03-02T11:04:10.450Z,46.05
2018-03-02T11:07:14.157Z,48.70
2018-03-02T11:10:17.297Z,47.60
2018-03-02T11:13:20.479Z,49.30
2018-03-02T11:16:23.676Z,48.05
2018-03-02T11:19:26.878Z,45.00
2018-03-02T11:22:30.059Z,50.38
2018-03-02T11:25:33.282Z,48.60
2018-03-02T11:28:36.478Z,45.33
2018-03-02T11:31:39.636Z,47.88
2018-03-02T11:34:42.774Z,45.80
2018-03-02T11:37:47.105Z,50.05
2018-03-02T11:40:50.272Z,49.07
2018-03-02T11:43:53.420Z,47.85
2018-03-02T11:46:56.656Z,49.25
2018-03-02T11:49:59.746Z,48.10
2018-03-02T11:53:02.946Z,46.80
2018-03-02T11:56:06.655Z,48.17
2018-03-02T11:59:09.870Z,45.95
2018-03-02T12:02:13.002Z,49.85
2018-03-02T12:05:17.153Z,51.53
2018-03-02T12:08:20.313Z,52.10
2018-03-02T12:11:23.466Z,48.63
2018-03-02T12:14:26.680Z,47.15
2018-03-02T12:17:30.046Z,51.55
2018-03-02T12:20:33.208Z,46.77
2018-03-02T12:23:36.515Z,45.48
2018-03-02T12:26:39.610Z,45.17
2018-03-02T12:29:42.860Z,47.08
2018-03-02T12:32:46.580Z,43.73
2018-03-02T12:35:49.730Z,48.60
2018-03-02T12:38:52.900Z,47.30
2018-03-02T12:41:56.126Z,48.02
2018-03-02T12:44:59.903Z,46.58
2018-03-02T12:48:03.134Z,47.45
2018-03-02T12:51:06.322Z,48.92
2018-03-02T12:54:09.520Z,48.35
2018-03-02T12:57:12.793Z,50.55
2018-03-02T13:00:16.634Z,48.20
2018-03-02T13:03:19.769Z,47.77
2018-03-02T13:06:22.932Z,44.05
2018-03-02T13:09:26.147Z,45.58
2018-03-02T13:12:29.304Z,49.20
2018-03-02T13:15:32.447Z,42.40
2018-03-02T13:18:43.119Z,46.18
2018-03-02T13:21:47.514Z,47.25
2018-03-02T13:24:50.710Z,44.18
2018-03-02T13:28:05.340Z,45.45
2018-03-02T13:31:08.597Z,47.23
2018-03-02T13:35:15.810Z,48.67
2018-03-02T13:38:19.081Z,45.97
2018-03-02T13:41:33.666Z,49.58
2018-03-02T13:44:36.837Z,48.20
2018-03-02T13:47:46.665Z,43.65
2018-03-02T13:50:49.814Z,46.02
2018-03-02T13:53:53.001Z,43.83
2018-03-02T13:58:03.120Z,49.20
2018-03-02T14:01:06.345Z,46.77
2018-03-02T14:05:13.850Z,48.25
2018-03-02T14:08:17.978Z,47.63
2018-03-02T14:11:21.167Z,50.90
2018-03-02T14:14:24.437Z,45.78
2018-03-02T14:17:27.648Z,47.48
2018-03-02T14:20:30.852Z,46.63
2018-03-02T14:23:34.047Z,48.02
2018-03-02T14:26:37.244Z,49.55
2018-03-02T14:29:40.462Z,44.73
2018-03-02T14:32:43.616Z,46.73
2018-03-02T14:35:47.927Z,47.98
2018-03-02T14:38:51.161Z,48.87
2018-03-02T14:41:54.325Z,47.93
2018-03-02T14:44:57.574Z,45.10
2018-03-02T14:48:00.782Z,44.20
2018-03-02T14:51:04.096Z,55.20
2018-03-02T14:54:07.360Z,53.10
2018-03-02T14:57:10.627Z,49.77
2018-03-02T15:00:13.835Z,48.25
2018-03-02T15:03:18.010Z,48.23
2018-03-02T15:06:21.163Z,49.23
2018-03-02T15:09:24.346Z,46.73
2018-03-02T15:12:27.495Z,45.92
2018-03-02T15:15:30.649Z,49.25
2018-03-02T15:18:34.345Z,53.63
2018-03-02T15:21:37.697Z,51.08
2018-03-02T15:24:40.962Z,47.30
2018-03-02T15:27:44.150Z,49.93
2018-03-02T15:30:49.278Z,45.23
2018-03-02T15:33:52.449Z,52.30
2018-03-02T15:36:55.678Z,49.63
2018-03-02T15:39:58.944Z,53.73
2018-03-02T15:43:02.654Z,49.03
2018-03-02T15:46:05.812Z,46.70
2018-03-02T15:49:09.070Z,49.80
2018-03-02T15:52:12.291Z,49.50
2018-03-02T15:55:16.058Z,48.60
2018-03-02T15:58:19.317Z,51.03
2018-03-02T16:01:22.555Z,54.13
2018-03-02T16:04:25.929Z,51.67
2018-03-02T16:07:29.126Z,50.67
2018-03-02T16:10:32.349Z,48.33
2018-03-02T16:13:35.654Z,46.47
2018-03-02T16:16:38.976Z,52.57
2018-03-02T16:19:42.259Z,53.37
2018-03-02T16:22:47.006Z,54.50
2018-03-02T16:25:50.225Z,47.20
2018-03-02T16:28:53.428Z,55.00
2018-03-02T16:31:56.676Z,54.47
2018-03-02T16:34:59.977Z,58.30
2018-03-02T16:38:03.204Z,72.70
2018-03-02T16:41:06.962Z,63.00
2018-03-02T16:44:10.295Z,56.70
2018-03-02T16:47:14.344Z,58.13
2018-03-02T16:50:17.485Z,52.47
2018-03-02T16:53:20.826Z,59.83
2018-03-02T16:56:24.114Z,59.07
2018-03-02T16:59:27.383Z,63.60
2018-03-02T17:02:30.636Z,58.43
2018-03-02T17:05:34.043Z,62.73
2018-03-02T17:08:37.165Z,57.80
2018-03-02T17:11:40.446Z,63.60
2018-03-02T17:14:44.554Z,69.03
2018-03-02T17:17:47.882Z,64.33
2018-03-02T17:20:51.187Z,62.57
2018-03-02T17:23:55.509Z,68.93
2018-03-02T17:26:58.737Z,64.37
2018-03-02T17:30:01.988Z,61.80
2018-03-02T17:33:05.170Z,64.87
2018-03-02T17:36:08.343Z,66.97
2018-03-02T17:39:11.535Z,67.57
2018-03-02T17:42:15.637Z,68.83
2018-03-02T17:45:18.931Z,71.20
2018-03-02T17:48:22.117Z,65.37
2018-03-02T17:51:25.453Z,68.07
2018-03-02T17:54:28.662Z,67.13
2018-03-02T17:57:31.947Z,67.43
2018-03-02T18:00:35.584Z,69.73
2018-03-02T18:03:38.750Z,66.83
2018-03-02T18:06:43.053Z,71.93
2018-03-02T18:09:46.879Z,63.50
2018-03-02T18:12:50.096Z,69.43
2018-03-02T18:15:53.336Z,64.53
2018-03-02T18:18:56.592Z,75.73
2018-03-02T18:21:59.771Z,67.73
2018-03-02T18:25:02.977Z,72.87
2018-03-02T18:28:06.159Z,73.73
2018-03-02T18:31:09.492Z,75.97
2018-03-02T18:34:12.673Z,77.30
2018-03-02T18:37:15.858Z,79.43
2018-03-02T18:40:19.054Z,78.27
2018-03-02T18:43:22.267Z,77.00
2018-03-02T18:46:25.462Z,74.30
2018-03-02T18:49:28.663Z,78.07
2018-03-02T18:52:31.833Z,77.33
2018-03-02T18:55:35.106Z,72.57
2018-03-02T18:58:38.242Z,72.40
2018-03-02T19:01:41.554Z,80.63
2018-03-02T19:04:44.854Z,88.77
2018-03-02T19:07:48.126Z,83.53
2018-03-02T19:10:51.321Z,93.00
2018-03-02T19:13:54.532Z,96.00
2018-03-02T19:16:57.827Z,103.60
2018-03-02T19:20:01.063Z,101.33
2018-03-02T19:23:04.244Z,87.03
2018-03-02T19:26:07.458Z,85.67
2018-03-02T19:29:11.538Z,77.20
2018-03-02T19:32:14.826Z,80.57
2018-03-02T19:35:17.981Z,78.03
2018-03-02T19:38:21.138Z,78.37
2018-03-02T19:41:24.362Z,75.80
2018-03-02T19:44:27.614Z,74.63
2018-03-02T19:47:30.781Z,73.10
2018-03-02T19:50:33.961Z,90.47
2018-03-02T19:53:37.132Z,107.90
2018-03-02T19:56:40.453Z,109.10
2018-03-02T19:59:44.726Z,83.60
2018-03-02T20:02:47.956Z,84.30
2018-03-02T20:05:51.344Z,82.93
2018-03-02T20:08:54.653Z,84.43
2018-03-02T20:11:57.939Z,84.93
2018-03-02T20:15:01.633Z,78.93
2018-03-02T20:18:05.043Z,81.97
2018-03-02T20:21:09.442Z,90.83
2018-03-02T20:24:12.857Z,97.13
2018-03-02T20:27:16.793Z,86.63
2018-03-02T20:30:20.094Z,77.23
2018-03-02T20:33:23.642Z,81.87
2018-03-02T20:36:26.883Z,81.87
2018-03-02T20:39:30.234Z,82.83
2018-03-02T20:42:33.904Z,83.17
2018-03-02T20:45:37.135Z,89.20
2018-03-02T20:48:40.434Z,97.00
2018-03-02T20:51:43.880Z,83.57
2018-03-02T20:54:47.234Z,88.17
2018-03-02T20:57:50.558Z,91.20
2018-03-02T21:00:53.935Z,86.30
2018-03-02T21:03:57.187Z,78.20
2018-03-02T21:07:00.629Z,87.97
2018-03-02T21:10:04.002Z,74.77
2018-03-02T21:13:07.438Z,78.63
2018-03-02T21:16:12.480Z,79.57
2018-03-02T21:19:15.809Z,83.33
2018-03-02T21:22:19.426Z,76.77
2018-03-02T21:25:22.655Z,82.63
2018-03-02T21:28:25.842Z,82.00
2018-03-02T21:31:29.565Z,76.23
2018-03-02T21:34:32.890Z,77.30
2018-03-02T21:37:35.998Z,81.03
2018-03-02T21:40:39.193Z,77.57
2018-03-02T21:43:42.438Z,77.33
2018-03-02T21:46:45.687Z,73.57
2018-03-02T21:49:48.879Z,82.30
2018-03-02T21:52:52.082Z,75.27
2018-03-02T21:55:55.283Z,84.50
2018-03-02T21:58:58.490Z,85.07
2018-03-02T22:02:01.826Z,76.03
2018-03-02T22:05:05.004Z,78.00
2018-03-02T22:08:08.175Z,79.37
2018-03-02T22:11:11.355Z,82.70
2018-03-02T22:14:15.306Z,84.40
2018-03-02T22:17:18.455Z,83.07
2018-03-02T22:20:21.651Z,74.37
2018-03-02T22:23:24.851Z,79.30
2018-03-02T22:26:28.033Z,80.60
2018-03-02T22:29:31.253Z,75.53
2018-03-02T22:32:34.454Z,76.77
2018-03-02T22:35:37.614Z,81.50
2018-03-02T22:38:40.838Z,74.53
2018-03-02T22:41:44.005Z,75.93
2018-03-02T22:44:47.283Z,81.67
2018-03-02T22:47:50.554Z,77.27
2018-03-02T22:50:53.708Z,83.43
2018-03-02T22:53:56.933Z,81.73
2018-03-02T22:57:00.140Z,78.10
2018-03-02T23:00:03.351Z,81.20
2018-03-02T23:03:06.526Z,78.10
2018-03-02T23:06:09.715Z,78.70
2018-03-02T23:09:12.977Z,76.70
2018-03-02T23:12:16.207Z,79.43
2018-03-02T23:15:20.324Z,76.83
2018-03-02T23:18:23.478Z,80.90
2018-03-02T23:21:26.642Z,92.10
2018-03-02T23:24:29.835Z,85.03
2018-03-02T23:27:33.005Z,78.47
2018-03-02T23:30:36.201Z,79.43
2018-03-02T23:33:45.759Z,76.07
2018-03-02T23:36:51.412Z,79.45
2018-03-02T23:39:54.586Z,83.60
2018-03-02T23:42:57.823Z,78.83
2018-03-02T23:46:00.999Z,79.37
2018-03-02T23:49:04.145Z,78.13
2018-03-02T23:52:07.411Z,83.80
2018-03-02T23:55:10.587Z,82.77
2018-03-02T23:58:13.816Z,78.23
